createdAt,value
2022-11-08T09:12:57.610Z,99943.03
2022-11-08T09:16:01.788Z,99949.66
2022-11-08T09:19:03.553Z,99944.66
2022-11-08T09:22:05.163Z,99950.44
2022-11-08T09:25:07.035Z,99945.44
2022-11-08T09:28:09.310Z,99939.38
2022-11-08T09:31:12.309Z,99938.03
2022-11-08T09:34:16.287Z,99937.69
2022-11-08T09:37:22.185Z,99948.56
2022-11-08T09:40:30.582Z,99946.16
2022-11-08T09:43:43.769Z,99944.31
2022-11-08T09:47:34.294Z,99953.25
2022-11-08T09:50:43.433Z,99944.28
2022-11-08T09:53:52.988Z,99945.16
2022-11-08T09:56:55.626Z,99948.38
2022-11-08T10:00:04.024Z,99938.56
2022-11-08T10:03:13.184Z,99922.44
2022-11-08T10:06:36.570Z,99933.63
2022-11-08T10:09:38.069Z,99923.91
2022-11-08T10:13:00.647Z,99922.00
2022-11-08T10:16:27.250Z,99911.94
2022-11-08T10:19:47.817Z,99907.03
2022-11-08T10:23:04.395Z,99904.63
2022-11-08T10:26:08.196Z,99902.09
2022-11-08T10:29:15.561Z,99891.22
2022-11-08T10:32:20.584Z,99885.63
2022-11-08T10:35:34.758Z,99879.16
2022-11-08T10:38:47.394Z,99872.72
2022-11-08T10:42:34.151Z,99867.78
2022-11-08T10:45:35.783Z,99865.06
2022-11-08T10:48:40.121Z,99864.22
2022-11-08T10:51:44.200Z,99851.66
2022-11-08T10:54:51.528Z,99862.88
2022-11-08T10:57:53.513Z,99855.56
2022-11-08T11:01:06.125Z,99843.72
2022-11-08T11:04:26.588Z,99843.88
2022-11-08T11:07:32.844Z,99829.28
2022-11-08T11:10:36.165Z,99833.84
2022-11-08T11:13:37.720Z,99839.28
2022-11-08T11:16:48.681Z,99827.78
2022-11-08T11:19:55.701Z,99834.22
2022-11-08T11:22:59.052Z,99830.50
2022-11-08T11:26:00.682Z,99839.66
2022-11-08T11:29:05.108Z,99839.47
2022-11-08T11:32:25.417Z,99829.47
2022-11-08T11:35:35.702Z,99833.38
2022-11-08T11:38:51.165Z,99829.16
2022-11-08T11:42:12.619Z,99815.94
2022-11-08T11:46:02.416Z,99814.44
2022-11-08T11:49:13.514Z,99810.88
2022-11-08T11:52:18.261Z,99818.66
2022-11-08T11:55:27.029Z,99812.88
2022-11-08T11:59:02.311Z,99802.47
2022-11-08T12:02:31.837Z,99802.63
2022-11-08T12:12:57.637Z,99799.41
2022-11-08T12:16:24.628Z,99799.84
2022-11-08T12:20:27.321Z,99798.94
2022-11-08T12:24:06.430Z,99791.75
2022-11-08T12:27:33.839Z,99793.66
2022-11-08T12:30:44.730Z,99785.41
2022-11-08T12:33:46.204Z,99786.19
2022-11-08T12:37:19.617Z,99779.53
2022-11-08T12:40:30.670Z,99771.09
2022-11-08T12:43:50.936Z,99771.81
2022-11-08T12:47:15.756Z,99778.66
2022-11-08T12:50:44.685Z,99760.16
2022-11-08T12:53:58.373Z,99762.38
2022-11-08T12:57:10.062Z,99756.94
2022-11-08T13:00:18.140Z,99754.22
2022-11-08T13:03:47.113Z,99747.56
2022-11-08T13:07:16.238Z,99751.59
2022-11-08T13:10:56.647Z,99749.44
2022-11-08T13:14:00.323Z,99748.53
2022-11-08T13:17:24.796Z,99741.72
2022-11-08T13:20:46.865Z,99750.28
2022-11-08T13:23:48.378Z,99744.09
2022-11-08T13:26:50.164Z,99737.72
2022-11-08T13:29:53.199Z,99748.63
2022-11-08T13:33:36.235Z,99741.31
2022-11-08T13:36:59.672Z,99738.41
2022-11-08T13:40:13.160Z,99746.44
2022-11-08T13:43:24.743Z,99733.78
2022-11-08T13:46:26.200Z,99737.59
2022-11-08T13:49:27.765Z,99738.13
2022-11-08T13:53:04.725Z,99740.34
2022-11-08T13:56:06.288Z,99744.47
2022-11-08T13:59:43.067Z,99743.63
2022-11-08T14:02:44.652Z,99739.41
2022-11-08T14:05:48.347Z,99739.41
2022-11-08T14:09:09.190Z,99749.22
2022-11-08T14:12:19.940Z,99743.13
2022-11-08T14:15:46.606Z,99729.38
2022-11-08T14:18:48.557Z,99734.13
2022-11-08T14:21:56.461Z,99731.44
2022-11-08T14:25:50.538Z,99731.25
2022-11-08T14:28:53.265Z,99727.50
2022-11-08T14:32:25.931Z,99730.88
2022-11-08T14:35:27.432Z,99731.25
2022-11-08T14:38:31.278Z,99735.81
2022-11-08T14:41:33.657Z,99738.91
2022-11-08T14:44:35.209Z,99740.94
2022-11-08T14:47:37.200Z,99742.81
2022-11-08T14:50:38.717Z,99741.13
2022-11-08T14:53:49.129Z,99750.59
2022-11-08T14:56:50.981Z,99743.66
2022-11-08T14:59:56.360Z,99748.25
2022-11-08T15:03:05.382Z,99750.13
2022-11-08T15:06:13.604Z,99746.56
2022-11-08T15:09:27.949Z,99747.25
2022-11-08T15:12:29.553Z,99748.91
2022-11-08T15:15:33.640Z,99743.31
2022-11-08T15:18:40.863Z,99758.75
2022-11-08T15:21:49.001Z,99756.03
2022-11-08T15:25:23.074Z,99762.66
2022-11-08T15:28:30.070Z,99762.00
2022-11-08T15:31:36.072Z,99769.44
2022-11-08T15:34:40.811Z,99761.72
2022-11-08T15:37:42.773Z,99752.59
2022-11-08T15:40:50.601Z,99761.81
2022-11-08T15:43:55.052Z,99769.28
2022-11-08T15:50:29.632Z,99753.63
2022-11-08T15:53:31.134Z,99769.97
2022-11-08T15:56:33.143Z,99759.25
2022-11-08T15:59:36.510Z,99756.56
2022-11-08T16:02:38.018Z,99760.03
2022-11-08T16:05:39.512Z,99756.34
2022-11-08T16:08:41.427Z,99755.03
2022-11-08T16:11:45.284Z,99750.31
2022-11-08T16:14:46.810Z,99746.09
2022-11-08T16:17:48.490Z,99738.13
2022-11-08T16:20:50.442Z,99738.28
2022-11-08T16:23:51.965Z,99732.03
2022-11-08T16:26:53.551Z,99726.59
2022-11-08T16:29:55.108Z,99717.47
2022-11-08T16:32:57.149Z,99720.19
2022-11-08T16:36:01.376Z,99723.72
2022-11-08T16:39:03.770Z,99713.03
2022-11-08T16:42:07.654Z,99710.34
2022-11-08T16:45:10.002Z,99708.47
2022-11-08T16:48:24.776Z,99711.00
2022-11-08T16:51:26.516Z,99702.03
2022-11-08T16:54:31.255Z,99705.59
2022-11-08T16:57:35.211Z,99714.41
2022-11-08T17:00:39.280Z,99723.38
2022-11-08T17:03:40.798Z,99726.06
2022-11-08T17:06:42.406Z,99732.34
2022-11-08T17:09:44.021Z,99726.75
2022-11-08T17:12:46.097Z,99731.97
2022-11-08T17:15:49.149Z,99741.63
2022-11-08T17:18:53.050Z,99727.91
2022-11-08T17:21:54.887Z,99742.16
2022-11-08T17:24:56.447Z,99746.38
2022-11-08T17:27:58.075Z,99749.94
2022-11-08T17:31:13.852Z,99754.84
2022-11-08T17:34:15.715Z,99749.41
2022-11-08T17:37:17.263Z,99756.50
2022-11-08T17:40:18.857Z,99753.63
2022-11-08T17:43:20.788Z,99755.31
2022-11-08T17:46:22.420Z,99743.47
2022-11-08T17:49:23.991Z,99745.13
2022-11-08T17:52:25.518Z,99743.28
2022-11-08T17:55:26.996Z,99747.69
2022-11-08T17:58:28.908Z,99744.78
2022-11-08T18:01:31.484Z,99750.22
2022-11-08T18:04:33.250Z,99761.91
2022-11-08T18:07:35.008Z,99767.19
2022-11-08T18:10:36.558Z,99764.31
2022-11-08T18:13:38.260Z,99763.97
2022-11-08T18:16:39.733Z,99751.06
2022-11-08T18:19:41.299Z,99759.00
2022-11-08T18:22:42.861Z,99768.00
2022-11-08T18:25:48.086Z,99761.38
2022-11-08T18:28:49.595Z,99772.22
2022-11-08T18:31:51.131Z,99769.34
2022-11-08T18:34:52.782Z,99770.19
2022-11-08T18:37:55.283Z,99775.25
2022-11-08T18:40:56.818Z,99771.69
2022-11-08T18:44:00.098Z,99752.53
2022-11-08T18:47:02.986Z,99758.97
2022-11-08T18:50:05.479Z,99763.38
2022-11-08T18:53:08.560Z,99764.22
2022-11-08T18:56:11.650Z,99754.06
2022-11-08T18:59:13.425Z,99748.78
2022-11-08T19:02:15.035Z,99735.44
2022-11-08T19:05:16.785Z,99757.75
2022-11-08T19:08:20.403Z,99755.94
2022-11-08T19:11:22.898Z,99746.91
2022-11-08T19:14:24.553Z,99754.88
2022-11-08T19:17:26.186Z,99751.34
2022-11-08T19:20:27.737Z,99755.56
2022-11-08T19:23:30.140Z,99754.53
2022-11-08T19:26:31.688Z,99751.81
2022-11-08T19:29:33.174Z,99747.44
2022-11-08T19:32:34.700Z,99748.25
2022-11-08T19:35:37.270Z,99746.38
2022-11-08T19:38:39.703Z,99742.84
2022-11-08T19:41:41.634Z,99736.56
2022-11-08T19:44:43.185Z,99748.94
2022-11-08T19:47:47.304Z,99748.09
2022-11-08T19:50:50.551Z,99747.06
2022-11-08T19:53:56.958Z,99747.06
2022-11-08T19:57:06.439Z,99750.81
2022-11-08T20:00:10.397Z,99748.09
2022-11-08T20:03:14.709Z,99739.09
2022-11-08T20:06:19.203Z,99748.09
2022-11-08T20:09:21.334Z,99745.56
2022-11-08T20:12:25.149Z,99756.41
2022-11-08T20:15:26.772Z,99754.53
2022-11-08T20:18:28.290Z,99761.84
2022-11-08T20:21:29.900Z,99761.00
2022-11-08T20:24:31.732Z,99762.88
2022-11-08T20:27:33.229Z,99762.00
2022-11-08T20:30:35.276Z,99758.44
2022-11-08T20:33:38.233Z,99756.56
2022-11-08T20:36:40.987Z,99748.44
2022-11-08T20:39:42.587Z,99749.47
2022-11-08T20:42:44.164Z,99745.72
2022-11-08T20:45:47.289Z,99745.72
2022-11-08T20:48:52.063Z,99741.16
2022-11-08T20:51:53.659Z,99740.13
2022-11-08T20:54:55.547Z,99738.09
2022-11-08T20:57:57.661Z,99739.97
2022-11-08T21:01:00.583Z,99731.81
2022-11-08T21:04:02.263Z,99730.78
2022-11-08T21:08:01.427Z,99738.94
2022-11-08T21:10:42.072Z,99733.50
2022-11-08T21:13:46.470Z,99736.22
2022-11-08T21:17:19.722Z,99742.47
2022-11-08T21:20:10.153Z,99750.81
2022-11-08T21:23:11.689Z,99757.06
2022-11-08T21:26:14.973Z,99748.94
2022-11-08T21:29:16.480Z,99747.22
2022-11-08T21:32:18.042Z,99747.22
2022-11-08T21:35:19.603Z,99749.09
2022-11-08T21:38:22.104Z,99761.66
2022-11-08T21:41:23.649Z,99756.41
2022-11-08T21:44:25.164Z,99755.38
2022-11-08T21:47:26.692Z,99747.44
2022-11-08T21:50:28.261Z,99762.66
2022-11-08T21:53:29.758Z,99749.94
2022-11-08T21:56:35.023Z,99754.53
2022-11-08T21:59:36.933Z,99761.84
2022-11-08T22:02:40.385Z,99753.69
2022-11-08T22:05:43.360Z,99775.41
2022-11-08T22:08:44.935Z,99778.94
2022-11-08T22:11:46.522Z,99771.00
2022-11-08T22:14:49.371Z,99767.25
2022-11-08T22:18:14.293Z,99763.69
2022-11-08T22:21:30.679Z,99774.56
2022-11-08T22:24:32.256Z,99770.13
2022-11-08T22:27:33.818Z,99779.31
2022-11-08T22:30:35.319Z,99772.00
2022-11-08T22:33:36.892Z,99773.19
2022-11-08T22:36:44.533Z,99773.19
2022-11-08T22:39:47.054Z,99773.41
2022-11-08T22:42:48.582Z,99769.16
2022-11-08T22:45:50.076Z,99780.03
2022-11-08T22:48:51.682Z,99781.03
2022-11-08T22:51:53.280Z,99774.94
2022-11-08T22:54:55.845Z,99783.06
2022-11-08T22:57:57.368Z,99782.41
2022-11-08T23:00:58.922Z,99775.13
2022-11-08T23:04:00.697Z,99784.25
2022-11-08T23:07:02.230Z,99785.47
2022-11-08T23:10:04.171Z,99778.34
2022-11-08T23:13:24.335Z,99765.81
2022-11-08T23:16:31.817Z,99762.25
2022-11-08T23:19:52.104Z,99764.31
2022-11-08T23:23:12.006Z,99757.00
2022-11-08T23:26:13.609Z,99754.47
2022-11-08T23:29:34.817Z,99754.63
2022-11-08T23:32:36.553Z,99753.75
2022-11-08T23:35:38.110Z,99758.34
2022-11-08T23:38:41.241Z,99752.09
2022-11-08T23:42:01.245Z,99773.78
2022-11-08T23:45:02.802Z,99765.81
2022-11-08T23:48:04.713Z,99756.81
2022-11-08T23:51:07.309Z,99766.84
2022-11-08T23:54:08.861Z,99760.94
2022-11-08T23:57:10.492Z,99760.06
